createdAt,value
2023-05-28T00:00:11.685Z,2.70
2023-05-28T00:11:00.721Z,2.95
2023-05-28T00:21:36.261Z,3.58
2023-05-28T00:32:11.075Z,3.40
2023-05-28T00:42:47.216Z,3.22
2023-05-28T00:53:21.870Z,2.47
2023-05-28T01:03:56.689Z,2.85
2023-05-28T01:14:31.486Z,2.67
2023-05-28T01:25:12.025Z,2.83
2023-05-28T01:35:47.111Z,2.47
2023-05-28T01:46:23.521Z,2.58
2023-05-28T01:56:59.309Z,3.20
2023-05-28T02:07:34.217Z,3.33
2023-05-28T02:18:11.775Z,2.97
2023-05-28T02:28:47.572Z,3.20
2023-05-28T02:39:23.974Z,3.45
2023-05-28T02:49:58.969Z,4.07
2023-05-28T03:00:35.065Z,3.42
2023-05-28T03:11:09.983Z,4.07
2023-05-28T03:21:45.078Z,3.05
2023-05-28T03:32:21.881Z,3.10
2023-05-28T03:42:56.603Z,3.28
2023-05-28T03:53:31.297Z,2.80
2023-05-28T04:04:07.599Z,3.53
2023-05-28T04:14:42.606Z,3.03
2023-05-28T04:25:20.056Z,3.35
2023-05-28T04:35:55.922Z,3.20
2023-05-28T04:46:31.240Z,3.58
2023-05-28T04:57:06.760Z,3.35
2023-05-28T05:07:42.429Z,3.33
2023-05-28T05:18:17.396Z,3.38
2023-05-28T05:28:52.346Z,4.18
2023-05-28T05:39:27.145Z,3.60
2023-05-28T05:50:16.170Z,3.53
2023-05-28T06:00:53.202Z,3.00
2023-05-28T06:11:28.832Z,3.38
2023-05-28T06:22:03.643Z,3.58
2023-05-28T06:32:38.717Z,3.30
2023-05-28T06:43:13.824Z,3.33
2023-05-28T06:54:06.595Z,3.17
2023-05-28T07:04:42.750Z,3.17
2023-05-28T07:15:23.118Z,3.38
2023-05-28T07:25:59.038Z,3.05
2023-05-28T07:36:38.097Z,3.10
2023-05-28T07:47:15.015Z,2.72
2023-05-28T07:58:08.345Z,3.63
2023-05-28T08:08:43.552Z,3.53
2023-05-28T08:19:20.404Z,3.67
2023-05-28T08:29:57.392Z,3.72
2023-05-28T08:40:36.050Z,3.92
2023-05-28T08:51:11.081Z,3.70
2023-05-28T09:01:51.610Z,3.65
2023-05-28T09:12:29.727Z,3.30
2023-05-28T09:23:10.125Z,3.05
2023-05-28T09:34:06.238Z,3.40
2023-05-28T09:44:43.287Z,2.78
2023-05-28T09:55:19.245Z,3.65
2023-05-28T10:06:00.821Z,4.45
2023-05-28T10:16:36.799Z,3.13
2023-05-28T10:27:20.283Z,3.83
2023-05-28T10:38:09.610Z,3.20
2023-05-28T10:49:07.387Z,4.00
2023-05-28T10:59:54.670Z,3.25
2023-05-28T11:10:32.403Z,3.30
2023-05-28T11:21:10.291Z,2.88
2023-05-28T11:31:44.951Z,3.83
2023-05-28T11:42:20.690Z,3.55
2023-05-28T11:52:56.506Z,3.22
2023-05-28T12:03:31.272Z,4.30
2023-05-28T12:14:13.273Z,4.03
2023-05-28T12:24:52.560Z,4.72
2023-05-28T12:35:27.444Z,6.60
2023-05-28T12:46:02.163Z,3.90
2023-05-28T12:56:37.265Z,4.10
2023-05-28T13:07:13.484Z,3.75
2023-05-28T13:17:48.347Z,3.95
2023-05-28T13:28:24.057Z,4.25
2023-05-28T13:38:58.835Z,4.05
2023-05-28T13:49:33.592Z,4.63
2023-05-28T14:00:11.075Z,3.95
2023-05-28T14:10:46.315Z,4.30
2023-05-28T14:21:21.044Z,4.10
2023-05-28T14:31:56.131Z,3.30
2023-05-28T14:42:31.157Z,4.75
2023-05-28T14:53:05.850Z,4.40
2023-05-28T15:03:41.130Z,3.63
2023-05-28T15:14:16.005Z,3.50
2023-05-28T15:24:51.237Z,3.38
2023-05-28T15:35:28.860Z,3.95
2023-05-28T15:46:04.399Z,3.45
2023-05-28T15:56:38.882Z,4.10
2023-05-28T16:07:14.980Z,4.05
2023-05-28T16:17:52.285Z,4.10
2023-05-28T16:28:27.232Z,3.83
2023-05-28T16:39:01.921Z,3.47
2023-05-28T16:49:37.671Z,3.92
2023-05-28T17:00:21.260Z,4.25
2023-05-28T17:10:55.619Z,4.90
2023-05-28T17:21:30.542Z,4.07
2023-05-28T17:32:05.596Z,3.20
2023-05-28T17:42:40.452Z,3.53
2023-05-28T17:53:17.815Z,4.18
2023-05-28T18:03:53.209Z,3.27
2023-05-28T18:14:31.735Z,4.25
2023-05-28T18:25:07.217Z,3.45
2023-05-28T18:35:41.977Z,4.03
2023-05-28T18:46:16.655Z,3.95
2023-05-28T18:56:51.344Z,3.47
2023-05-28T19:07:26.558Z,4.00
2023-05-28T19:18:01.413Z,3.63
2023-05-28T19:28:37.563Z,2.85
2023-05-28T19:39:12.318Z,2.83
2023-05-28T19:49:47.159Z,2.53
2023-05-28T20:00:22.385Z,2.38
2023-05-28T20:10:57.408Z,2.75
2023-05-28T20:21:32.352Z,2.42
2023-05-28T20:32:07.489Z,2.55
2023-05-28T20:42:42.584Z,2.00
2023-05-28T20:53:17.037Z,2.50
2023-05-28T21:03:52.209Z,2.08
2023-05-28T21:14:26.918Z,2.95
2023-05-28T21:25:01.489Z,2.30
2023-05-28T21:35:36.924Z,2.65
2023-05-28T21:46:11.819Z,2.28
2023-05-28T21:56:46.737Z,2.60
2023-05-28T22:07:21.701Z,2.22
2023-05-28T22:17:56.763Z,2.53
2023-05-28T22:28:31.637Z,2.75
2023-05-28T22:39:06.481Z,2.10
2023-05-28T22:49:43.318Z,2.08
2023-05-28T23:00:21.658Z,2.55
2023-05-28T23:10:56.424Z,2.50
2023-05-28T23:21:32.892Z,2.47
2023-05-28T23:32:08.490Z,2.90
2023-05-28T23:42:43.211Z,2.70
2023-05-28T23:53:18.070Z,2.90
